Time;durP1;ratioP1;P1;durP2;ratioP2;P2;SDS_P1;SDS_P2;PMS_P1;PMS_P2;Temp;Humidity;BMP_temperature;BMP_pressure;BME280_temperature;BME280_humidity;BME280_pressure;Samples;Min_cycle;Max_cycle;Signal;HPM_P1;HPM_P2
2023/05/02 00:00:47;;;;;;;6.60;1.02;;;;;;;14.08;57.51;100660.63;5033173;28;20144;-48
2023/05/02 00:03:13;;;;;;;9.40;1.50;;;;;;;13.87;57.94;100668.22;5032065;28;20104;-48
2023/05/02 00:05:40;;;;;;;5.00;1.40;;;;;;;13.81;58.26;100666.44;5033095;28;20025;-50
2023/05/02 00:08:06;;;;;;;6.10;1.58;;;;;;;13.88;57.27;100667.19;5032344;28;20093;-50
2023/05/02 00:10:33;;;;;;;4.88;1.17;;;;;;;13.83;58.06;100659.00;5032358;28;20032;-49
2023/05/02 00:12:59;;;;;;;4.97;1.58;;;;;;;13.95;57.74;100659.81;5040781;28;20405;-50
2023/05/02 00:15:28;;;;;;;7.20;1.48;;;;;;;14.00;56.60;100654.56;5053262;28;20036;-48
2023/05/02 00:17:54;;;;;;;4.45;1.05;;;;;;;14.09;56.25;100654.19;5031844;28;20056;-49
2023/05/02 00:20:20;;;;;;;5.88;1.15;;;;;;;14.00;55.87;100654.56;5015327;28;20104;-49
2023/05/02 00:22:47;;;;;;;4.13;1.08;;;;;;;13.96;55.83;100650.69;5017629;28;20025;-49
2023/05/02 00:25:15;;;;;;;2.53;1.05;;;;;;;13.94;56.01;100652.00;5012820;28;20137;-50
2023/05/02 00:27:42;;;;;;;3.65;1.00;;;;;;;13.93;55.93;100645.75;5027017;28;20394;-51
2023/05/02 00:30:09;;;;;;;4.78;0.90;;;;;;;13.72;57.14;100646.34;5032469;28;20028;-50
2023/05/02 00:32:35;;;;;;;5.05;1.50;;;;;;;13.68;57.13;100647.84;5028871;28;20056;-46
2023/05/02 00:35:01;;;;;;;5.22;1.10;;;;;;;13.54;57.45;100643.72;5023303;28;20116;-46
2023/05/02 00:37:28;;;;;;;6.15;1.40;;;;;;;13.51;57.75;100634.25;5024227;28;20025;-50
2023/05/02 00:39:54;;;;;;;3.35;0.82;;;;;;;13.63;57.82;100631.59;5013912;28;20037;-50
2023/05/02 00:42:21;;;;;;;3.45;1.27;;;;;;;13.70;57.45;100638.47;5002316;28;20029;-48
2023/05/02 00:44:47;;;;;;;5.93;1.10;;;;;;;13.89;56.69;100630.34;5032899;28;20038;-50
2023/05/02 00:47:14;;;;;;;4.05;1.10;;;;;;;13.87;57.06;100627.84;5028359;28;20029;-47
2023/05/02 00:49:41;;;;;;;4.22;1.30;;;;;;;13.92;56.15;100629.84;5044439;28;20044;-46
2023/05/02 00:52:08;;;;;;;6.80;1.23;;;;;;;13.88;56.30;100634.91;5052377;28;20028;-51
2023/05/02 00:54:38;;;;;;;4.55;1.15;;;;;;;13.74;56.55;100641.53;5046563;28;20026;-49
2023/05/02 00:57:05;;;;;;;5.78;1.23;;;;;;;13.59;57.23;100635.78;5035642;28;20489;-46
2023/05/02 00:59:35;;;;;;;4.22;1.17;;;;;;;13.47;57.45;100627.69;5046209;28;20067;-50
2023/05/02 01:02:07;;;;;;;6.07;1.40;;;;;;;13.55;57.40;100629.22;4995598;28;20037;-49
2023/05/02 01:05:02;;;;;;;7.05;1.48;;;;;;;13.60;57.68;100623.97;5032027;28;20029;-49
2023/05/02 01:07:43;;;;;;;6.05;1.50;;;;;;;13.35;57.72;100624.97;5033497;28;20119;-47
2023/05/02 01:10:39;;;;;;;4.22;1.33;;;;;;;13.47;56.91;100628.50;5032173;28;20025;-50
2023/05/02 01:13:21;;;;;;;4.63;1.30;;;;;;;13.37;57.61;100633.59;4991552;28;20037;-49
2023/05/02 01:15:51;;;;;;;5.30;1.10;;;;;;;13.39;57.73;100623.47;5032392;28;20033;-49
2023/05/02 01:18:24;;;;;;;5.95;1.20;;;;;;;13.37;58.01;100617.47;5030179;28;20029;-50
2023/05/02 01:20:56;;;;;;;;;;;;;;;13.19;58.34;100620.19;5018731;28;20045;-49
2023/05/02 01:23:50;;;;;;;8.00;1.65;;;;;;;13.08;59.36;100623.66;5011721;28;19917;-49
2023/05/02 01:26:22;;;;;;;7.13;1.30;;;;;;;12.98;58.99;100621.53;5011707;28;20128;-47
2023/05/02 01:29:07;;;;;;;3.25;1.38;;;;;;;12.98;59.05;100628.75;5012183;28;20473;-47
2023/05/02 01:31:38;;;;;;;4.57;1.50;;;;;;;12.97;59.61;100616.38;4995119;28;20030;-49
2023/05/02 01:34:09;;;;;;;5.10;1.30;;;;;;;12.88;59.67;100615.84;5011915;28;20038;-50
2023/05/02 01:36:38;;;;;;;5.45;1.58;;;;;;;13.00;59.86;100611.38;5011583;28;20022;-49
2023/05/02 01:39:08;;;;;;;6.10;1.40;;;;;;;12.95;60.23;100622.00;5031558;28;20057;-48
2023/05/02 01:41:36;;;;;;;5.97;1.80;;;;;;;12.89;60.98;100614.84;5031717;28;20026;-51
2023/05/02 01:44:04;;;;;;;7.20;1.75;;;;;;;12.94;60.68;100615.78;5037413;28;20033;-50
2023/05/02 01:46:37;;;;;;;5.00;1.65;;;;;;;12.97;60.57;100613.69;5037260;28;20021;-49
2023/05/02 01:49:08;;;;;;;6.47;1.83;;;;;;;12.86;61.05;100607.22;5026114;28;20057;-49
2023/05/02 01:51:42;;;;;;;7.63;1.60;;;;;;;12.74;61.13;100603.66;5005615;28;20033;-48
2023/05/02 01:54:13;;;;;;;3.60;1.30;;;;;;;12.85;61.36;100603.72;5022417;28;20485;-48
2023/05/02 01:56:40;;;;;;;6.85;1.45;;;;;;;12.71;61.56;100596.88;5028074;28;20536;-49
2023/05/02 01:59:13;;;;;;;6.35;1.45;;;;;;;12.81;61.12;100599.84;5011404;28;20405;-49
2023/05/02 02:01:42;;;;;;;8.02;1.38;;;;;;;12.73;61.11;100597.47;5020754;28;20549;-47
2023/05/02 02:04:12;;;;;;;4.88;1.40;;;;;;;12.58;61.96;100597.03;5031627;28;20030;-48
2023/05/02 02:06:42;;;;;;;6.22;1.50;;;;;;;12.39;62.39;100594.38;5024873;28;20091;-47
2023/05/02 02:09:08;;;;;;;8.57;1.65;;;;;;;12.41;62.74;100603.00;5030685;28;20083;-48
2023/05/02 02:11:56;;;;;;;7.78;1.50;;;;;;;12.29;63.32;100588.69;5014584;28;20112;-48
2023/05/02 02:14:27;;;;;;;5.00;1.48;;;;;;;12.30;63.22;100589.50;5037023;28;20021;-49
2023/05/02 02:16:59;;;;;;;5.15;1.52;;;;;;;12.41;62.66;100586.91;5035167;28;20061;-49
2023/05/02 02:19:28;;;;;;;5.20;1.40;;;;;;;12.48;62.37;100592.19;5035124;28;20035;-48
2023/05/02 02:21:57;;;;;;;4.45;1.30;;;;;;;12.48;62.49;100584.13;5035345;28;20029;-48
2023/05/02 02:24:25;;;;;;;6.32;1.50;;;;;;;12.48;62.72;100584.13;5034908;28;20053;-50
2023/05/02 02:26:52;;;;;;;4.20;1.17;;;;;;;12.57;62.22;100588.16;5041105;28;20017;-49
2023/05/02 02:29:18;;;;;;;10.82;1.38;;;;;;;12.50;62.63;100581.25;5041287;28;20082;-47
2023/05/02 02:31:44;;;;;;;3.22;1.00;;;;;;;12.45;62.53;100589.16;5034962;28;20040;-47
2023/05/02 02:34:11;;;;;;;4.68;1.25;;;;;;;12.50;61.62;100589.31;5034374;28;20032;-49
2023/05/02 02:36:48;;;;;;;3.55;1.08;;;;;;;12.48;62.00;100586.81;5033553;28;20047;-49
2023/05/02 02:39:21;;;;;;;4.10;1.20;;;;;;;12.56;61.82;100593.78;5032641;28;20068;-50
2023/05/02 02:42:28;;;;;;;3.75;1.42;;;;;;;12.40;62.32;100590.63;5031281;28;20032;-47
2023/05/02 02:45:23;;;;;;;4.13;1.13;;;;;;;12.50;61.99;100591.97;5031718;28;20419;-49
2023/05/02 02:48:01;;;;;;;3.78;1.27;;;;;;;12.37;62.37;100593.75;5028354;28;20121;-50
2023/05/02 02:51:02;;;;;;;5.60;1.20;;;;;;;12.56;61.68;100588.41;5024166;28;20087;-49
2023/05/02 02:53:46;;;;;;;5.55;1.23;;;;;;;12.37;61.58;100591.06;5025663;28;20033;-46
2023/05/02 02:56:21;;;;;;;6.15;1.55;;;;;;;12.28;61.66;100589.75;5033351;28;20041;-49
2023/05/02 02:59:09;;;;;;;6.10;1.30;;;;;;;12.14;62.42;100586.38;5022770;28;20030;-50
2023/05/02 03:01:39;;;;;;;4.93;1.05;;;;;;;12.15;62.48;100593.38;5015986;28;20096;-49
2023/05/02 03:04:07;;;;;;;5.32;1.42;;;;;;;12.15;62.60;100603.28;5045677;28;20025;-48
2023/05/02 03:06:34;;;;;;;5.57;1.13;;;;;;;12.13;62.39;100589.28;5054735;28;20027;-50
2023/05/02 03:09:00;;;;;;;7.65;1.30;;;;;;;12.20;62.00;100603.44;5054185;28;20021;-48
2023/05/02 03:11:26;;;;;;;6.15;1.45;;;;;;;12.15;61.84;100589.88;5054300;28;20036;-47
2023/05/02 03:13:53;;;;;;;4.47;1.20;;;;;;;12.05;62.48;100593.09;5033566;28;20392;-50
2023/05/02 03:16:40;;;;;;;7.80;1.20;;;;;;;12.10;62.01;100593.25;5034206;28;20033;-49
2023/05/02 03:19:07;;;;;;;5.80;1.02;;;;;;;12.00;62.38;100594.78;5034248;28;20504;-47
2023/05/02 03:21:35;;;;;;;3.28;0.63;;;;;;;12.22;61.81;100597.88;5034151;28;20034;-49
2023/05/02 03:24:03;;;;;;;3.70;1.20;;;;;;;12.04;62.23;100595.97;5032962;28;20026;-48
2023/05/02 03:26:30;;;;;;;3.08;0.98;;;;;;;12.14;62.06;100599.78;5034095;28;20049;-50
2023/05/02 03:28:56;;;;;;;4.82;1.00;;;;;;;12.10;61.88;100600.44;5026194;28;20438;-48
2023/05/02 03:31:22;;;;;;;2.78;1.02;;;;;;;12.21;62.06;100606.94;5032121;28;20099;-48
2023/05/02 03:33:49;;;;;;;4.90;1.00;;;;;;;12.16;62.03;100591.53;5015903;28;20030;-50
2023/05/02 03:36:15;;;;;;;2.85;1.13;;;;;;;12.13;62.33;100600.00;5033950;28;20465;-48
2023/05/02 03:38:42;;;;;;;5.00;1.30;;;;;;;12.02;63.13;100593.50;5033661;28;20028;-48
2023/05/02 03:41:08;;;;;;;8.77;1.50;;;;;;;12.08;62.93;100594.50;5033637;28;20037;-50
2023/05/02 03:43:34;;;;;;;4.65;1.08;;;;;;;12.19;62.26;100592.94;5033342;28;20022;-49
2023/05/02 03:46:10;;;;;;;7.22;1.30;;;;;;;12.03;62.88;100597.00;5033644;28;20497;-48
2023/05/02 03:48:36;;;;;;;2.58;1.00;;;;;;;12.16;62.17;100594.22;5033119;28;20030;-49
2023/05/02 03:51:09;;;;;;;4.20;1.17;;;;;;;12.13;62.18;100594.66;5041171;28;20073;-50
2023/05/02 03:53:36;;;;;;;4.93;1.00;;;;;;;11.98;61.94;100605.72;5045333;28;20095;-50
2023/05/02 03:56:02;;;;;;;5.55;1.05;;;;;;;11.94;61.93;100598.31;5033542;28;20037;-48
2023/05/02 03:58:28;;;;;;;5.90;1.30;;;;;;;12.04;61.41;100606.69;5033294;28;20469;-50
2023/05/02 04:00:54;;;;;;;5.28;1.40;;;;;;;12.02;61.82;100601.56;5033291;28;20033;-46
2023/05/02 04:03:21;;;;;;;5.47;1.10;;;;;;;11.96;62.25;100604.31;5015907;28;20068;-49
2023/05/02 04:05:47;;;;;;;5.13;1.13;;;;;;;12.04;61.81;100610.19;5047426;28;20033;-50
2023/05/02 04:08:14;;;;;;;5.82;0.95;;;;;;;11.81;62.32;100613.50;5040918;28;20390;-49
2023/05/02 04:10:40;;;;;;;2.60;0.98;;;;;;;11.85;61.99;100611.22;5029528;28;20528;-49
2023/05/02 04:13:06;;;;;;;5.45;1.20;;;;;;;11.81;62.22;100618.88;5036979;28;22015;-46
2023/05/02 04:15:32;;;;;;;5.30;1.40;;;;;;;11.70;62.47;100616.88;5044644;28;20021;-48
2023/05/02 04:17:59;;;;;;;3.15;1.15;;;;;;;11.85;62.46;100611.22;5052853;28;20381;-50
2023/05/02 04:20:25;;;;;;;3.38;1.38;;;;;;;11.87;62.44;100609.13;5028040;28;20022;-50
2023/05/02 04:22:51;;;;;;;4.68;1.20;;;;;;;11.74;62.49;100604.66;5012996;28;20022;-49
2023/05/02 04:25:18;;;;;;;5.35;0.77;;;;;;;11.57;62.66;100615.13;5012836;28;20109;-48
2023/05/02 04:27:44;;;;;;;5.95;1.05;;;;;;;11.56;63.02;100609.97;5022071;28;20048;-50
2023/05/02 04:30:10;;;;;;;4.32;0.95;;;;;;;11.57;62.55;100615.13;5033062;28;20040;-50
2023/05/02 04:32:37;;;;;;;3.72;1.13;;;;;;;11.45;63.54;100608.00;5038345;28;20488;-49
2023/05/02 04:35:04;;;;;;;4.57;1.10;;;;;;;11.33;64.12;100611.38;5030321;28;20444;-50
2023/05/02 04:37:31;;;;;;;5.63;1.10;;;;;;;11.41;64.03;100623.69;5032774;28;20030;-46
2023/05/02 04:39:57;;;;;;;1.98;0.80;;;;;;;11.44;63.86;100612.53;5014247;28;20033;-49
2023/05/02 04:42:24;;;;;;;3.72;0.90;;;;;;;11.43;63.48;100615.41;5029765;28;20253;-47
2023/05/02 04:44:50;;;;;;;4.10;0.93;;;;;;;11.60;63.22;100613.84;5031358;28;20025;-50
2023/05/02 04:47:16;;;;;;;2.13;1.00;;;;;;;11.47;63.75;100609.41;5026199;28;20371;-50
2023/05/02 04:49:42;;;;;;;2.80;1.13;;;;;;;11.54;63.61;100625.44;5029457;28;20187;-48
2023/05/02 04:52:09;;;;;;;8.70;1.45;;;;;;;11.48;63.63;100611.06;5026389;28;20068;-47
2023/05/02 04:54:36;;;;;;;3.58;1.30;;;;;;;11.54;63.10;100617.41;5012521;28;20044;-47
2023/05/02 04:57:05;;;;;;;4.82;1.40;;;;;;;11.41;63.58;100614.81;5025360;28;20045;-48
2023/05/02 04:59:31;;;;;;;6.43;1.00;;;;;;;11.50;63.82;100616.22;5032091;28;20061;-48
2023/05/02 05:01:58;;;;;;;5.28;1.10;;;;;;;11.56;63.83;100613.47;5032260;28;20033;-50
2023/05/02 05:04:24;;;;;;;4.10;0.90;;;;;;;11.37;64.46;100612.56;5032015;28;20493;-50
2023/05/02 05:06:51;;;;;;;9.25;1.60;;;;;;;11.42;64.20;100617.28;5032112;28;20044;-48
2023/05/02 05:09:17;;;;;;;4.47;1.15;;;;;;;11.40;64.25;100615.88;5032043;28;20474;-45
2023/05/02 05:11:45;;;;;;;4.82;1.42;;;;;;;11.49;63.98;100622.59;5032050;28;20033;-46
2023/05/02 05:14:11;;;;;;;3.53;1.13;;;;;;;11.36;64.07;100604.75;5031858;28;20091;-47
2023/05/02 05:16:37;;;;;;;5.07;1.80;;;;;;;11.45;64.03;100613.38;5031972;28;20496;-48
2023/05/02 05:19:04;;;;;;;4.93;1.98;;;;;;;11.44;63.97;100606.34;5031904;28;20041;-47
2023/05/02 05:21:30;;;;;;;4.93;1.40;;;;;;;11.39;64.14;100604.34;5031793;28;20071;-49
2023/05/02 05:23:56;;;;;;;4.38;1.38;;;;;;;11.50;63.58;100608.19;5031476;28;20470;-51
2023/05/02 05:26:24;;;;;;;4.82;1.13;;;;;;;11.26;64.68;100601.72;5031741;28;20029;-50
2023/05/02 05:28:50;;;;;;;4.72;1.08;;;;;;;11.25;64.91;100603.59;5031886;28;20022;-50
2023/05/02 05:31:16;;;;;;;3.42;1.00;;;;;;;11.23;65.01;100611.03;5031655;28;20163;-44
2023/05/02 05:33:43;;;;;;;3.67;1.92;;;;;;;11.26;65.10;100605.22;5031863;28;20033;-48
2023/05/02 05:36:11;;;;;;;4.63;1.05;;;;;;;11.30;65.21;100601.09;5031929;28;20083;-48
2023/05/02 05:38:38;;;;;;;3.65;1.23;;;;;;;11.37;64.92;100603.72;5031652;28;20108;-44
2023/05/02 05:41:06;;;;;;;3.63;0.93;;;;;;;11.39;65.28;100598.16;5031821;28;20084;-47
2023/05/02 05:43:33;;;;;;;3.67;1.10;;;;;;;11.43;65.29;100600.16;5031186;28;20025;-49
2023/05/02 05:45:59;;;;;;;5.80;1.10;;;;;;;11.55;64.61;100603.00;5032218;28;20116;-48
2023/05/02 05:48:25;;;;;;;3.63;0.88;;;;;;;11.54;64.60;100601.31;5035873;28;20022;-48
2023/05/02 05:50:52;;;;;;;6.43;1.25;;;;;;;11.52;65.18;100604.22;5035766;28;20103;-49
2023/05/02 05:53:18;;;;;;;7.70;1.17;;;;;;;11.54;65.20;100609.38;5035725;28;20030;-46
2023/05/02 05:55:45;;;;;;;4.05;1.20;;;;;;;11.44;65.27;100609.88;5035587;28;20040;-47
2023/05/02 05:58:11;;;;;;;4.18;1.25;;;;;;;11.51;64.75;100605.28;5035897;28;20057;-48
2023/05/02 06:00:38;;;;;;;4.95;1.10;;;;;;;11.54;64.46;100599.47;5035543;28;20025;-48
2023/05/02 06:03:05;;;;;;;4.43;0.90;;;;;;;11.42;65.01;100589.66;5035347;28;20473;-48
2023/05/02 06:05:32;;;;;;;4.00;0.70;;;;;;;11.42;64.69;100593.16;5035372;28;20036;-46
2023/05/02 06:07:59;;;;;;;4.80;1.30;;;;;;;11.53;64.26;100597.00;5035802;28;20044;-46
2023/05/02 06:10:25;;;;;;;2.10;0.80;;;;;;;11.46;63.80;100590.88;5035534;28;20021;-47
2023/05/02 06:12:51;;;;;;;2.47;0.70;;;;;;;11.42;63.39;100595.03;5035156;28;20025;-47
2023/05/02 06:15:18;;;;;;;5.07;0.90;;;;;;;11.47;63.56;100592.53;5017631;28;20022;-46
2023/05/02 06:17:44;;;;;;;3.30;0.95;;;;;;;11.41;64.23;100580.00;5035344;28;20132;-49
2023/05/02 06:20:10;;;;;;;4.78;1.20;;;;;;;11.45;64.24;100584.69;5024106;28;20038;-46
2023/05/02 06:22:38;;;;;;;3.45;0.70;;;;;;;11.42;64.48;100582.44;5013886;28;20053;-51
2023/05/02 06:25:05;;;;;;;5.00;0.90;;;;;;;11.43;64.52;100585.94;5031291;28;20077;-46
2023/05/02 06:27:31;;;;;;;2.17;0.88;;;;;;;11.47;64.77;100584.47;5030971;28;20040;-45
2023/05/02 06:29:59;;;;;;;4.57;1.00;;;;;;;11.63;63.82;100583.94;5040947;28;20025;-47
2023/05/02 06:32:30;;;;;;;1.45;0.90;;;;;;;11.69;63.33;100591.09;5054705;28;20108;-48
2023/05/02 06:34:57;;;;;;;2.85;0.90;;;;;;;11.67;63.61;100579.78;5054980;28;20508;-48
2023/05/02 06:37:23;;;;;;;2.35;0.63;;;;;;;11.71;63.65;100588.19;5054692;28;20028;-48
2023/05/02 06:39:49;;;;;;;2.63;0.90;;;;;;;11.67;63.98;100569.06;5054791;28;20029;-48
2023/05/02 06:42:15;;;;;;;3.67;1.00;;;;;;;11.54;64.68;100575.34;5053078;28;20025;-45
2023/05/02 06:44:42;;;;;;;3.35;1.05;;;;;;;11.72;64.78;100571.09;5037406;28;20553;-47
2023/05/02 06:47:08;;;;;;;5.03;0.95;;;;;;;11.75;65.47;100570.63;5034749;28;20082;-48
2023/05/02 06:49:34;;;;;;;7.03;1.65;;;;;;;11.80;65.65;100573.47;5035011;28;20422;-48
2023/05/02 06:52:00;;;;;;;5.95;1.05;;;;;;;11.78;65.74;100570.19;5016626;28;20026;-48
2023/05/02 06:54:27;;;;;;;3.90;1.17;;;;;;;11.77;65.96;100572.06;5034522;28;20017;-47
2023/05/02 06:56:53;;;;;;;4.40;1.17;;;;;;;11.81;65.66;100570.59;5034267;28;20520;-45
2023/05/02 06:59:19;;;;;;;5.75;1.25;;;;;;;11.84;65.25;100572.03;5033337;28;20029;-49
2023/05/02 07:01:46;;;;;;;4.18;1.10;;;;;;;11.79;65.40;100567.28;5033441;28;20567;-48
2023/05/02 07:04:12;;;;;;;4.63;1.13;;;;;;;11.82;65.53;100566.06;5031777;28;20035;-45
2023/05/02 07:06:39;;;;;;;3.60;1.05;;;;;;;11.77;65.41;100571.22;5033123;28;20052;-50
2023/05/02 07:09:06;;;;;;;5.88;1.60;;;;;;;11.76;65.65;100574.94;5014570;28;20037;-49
2023/05/02 07:11:32;;;;;;;6.90;1.40;;;;;;;11.75;66.59;100571.44;5021410;28;20036;-50
2023/05/02 07:13:58;;;;;;;7.00;1.75;;;;;;;11.82;66.75;100566.88;5034011;28;20029;-48
2023/05/02 07:16:24;;;;;;;4.40;1.15;;;;;;;11.88;66.43;100574.06;5034635;28;20441;-45
2023/05/02 07:18:50;;;;;;;5.82;1.73;;;;;;;11.85;66.79;100566.44;5033772;28;20473;-45
2023/05/02 07:21:18;;;;;;;6.30;1.40;;;;;;;11.87;66.61;100572.41;5016367;28;20033;-46
2023/05/02 07:23:44;;;;;;;4.93;1.33;;;;;;;11.79;66.85;100567.28;5033710;28;20063;-45
2023/05/02 07:26:10;;;;;;;5.88;1.40;;;;;;;11.88;66.02;100571.38;5034054;28;20048;-49
2023/05/02 07:28:36;;;;;;;12.57;1.92;;;;;;;11.76;66.72;100570.41;5033900;28;20100;-48
2023/05/02 07:31:04;;;;;;;6.97;1.60;;;;;;;11.81;66.86;100573.28;5034180;28;20112;-45
2023/05/02 07:33:30;;;;;;;5.60;1.25;;;;;;;11.88;66.87;100573.22;5033517;28;20021;-44
2023/05/02 07:35:56;;;;;;;3.47;1.33;;;;;;;11.85;67.86;100576.34;5033946;28;20104;-44
2023/05/02 07:38:23;;;;;;;8.07;1.70;;;;;;;11.91;67.59;100572.78;5033680;28;20097;-47
2023/05/02 07:40:49;;;;;;;3.67;1.27;;;;;;;11.88;67.52;100579.44;5033828;28;20083;-49
2023/05/02 07:43:15;;;;;;;5.45;1.33;;;;;;;11.91;67.47;100570.09;5033194;28;20025;-46
2023/05/02 07:45:41;;;;;;;6.68;1.27;;;;;;;11.86;67.40;100568.06;5033627;28;20417;-48
2023/05/02 07:48:08;;;;;;;17.85;2.00;;;;;;;11.83;68.26;100568.53;5033592;28;20029;-45
2023/05/02 07:50:34;;;;;;;6.80;1.52;;;;;;;11.71;68.36;100567.56;5033395;28;20034;-45
2023/05/02 07:53:00;;;;;;;6.47;1.70;;;;;;;11.77;67.93;100568.53;5033234;28;20030;-49
2023/05/02 07:55:26;;;;;;;4.38;1.08;;;;;;;11.58;69.11;100565.81;5033335;28;20030;-47
2023/05/02 07:57:53;;;;;;;9.48;2.00;;;;;;;11.63;68.41;100570.53;5033143;28;20502;-48
2023/05/02 08:00:19;;;;;;;12.60;1.67;;;;;;;11.69;67.91;100569.66;5033276;28;20033;-47
2023/05/02 08:02:46;;;;;;;6.15;1.50;;;;;;;11.66;68.14;100570.09;5032977;28;20028;-45
2023/05/02 08:05:12;;;;;;;5.60;1.35;;;;;;;11.60;68.03;100566.44;5033161;28;20022;-44
2023/05/02 08:07:38;;;;;;;5.60;1.25;;;;;;;11.48;68.61;100559.31;5032336;28;20030;-46
2023/05/02 08:10:06;;;;;;;5.47;1.20;;;;;;;11.37;68.85;100561.66;5029585;28;20128;-48
2023/05/02 08:12:32;;;;;;;9.50;1.33;;;;;;;11.58;68.03;100567.69;5031666;28;20060;-44
2023/05/02 08:14:58;;;;;;;6.03;1.40;;;;;;;11.53;68.29;100562.16;5033002;28;20029;-48
2023/05/02 08:17:24;;;;;;;7.13;2.03;;;;;;;11.33;69.46;100555.09;5031975;28;20573;-48
2023/05/02 08:19:50;;;;;;;5.95;1.50;;;;;;;11.45;68.60;100552.53;5022882;28;20429;-45
2023/05/02 08:22:17;;;;;;;6.60;1.20;;;;;;;11.47;68.86;100552.31;5030264;28;20033;-45
2023/05/02 08:24:43;;;;;;;4.25;1.35;;;;;;;11.46;69.24;100553.34;5013972;28;20064;-45
2023/05/02 08:27:09;;;;;;;8.05;1.60;;;;;;;11.57;69.62;100550.78;5032923;28;20022;-48
2023/05/02 08:29:35;;;;;;;5.20;1.35;;;;;;;11.59;69.07;100542.50;5032558;28;20029;-46
2023/05/02 08:32:01;;;;;;;5.45;1.65;;;;;;;11.44;69.84;100537.50;5033971;28;20083;-45
2023/05/02 08:34:28;;;;;;;6.43;1.33;;;;;;;11.63;68.44;100547.22;5034294;28;20385;-49
2023/05/02 08:36:54;;;;;;;6.53;1.60;;;;;;;11.51;69.25;100538.25;5033025;28;20021;-47
2023/05/02 08:39:20;;;;;;;6.68;1.75;;;;;;;11.47;69.28;100542.41;5032403;28;20029;-49
2023/05/02 08:41:46;;;;;;;5.63;1.70;;;;;;;11.35;70.36;100528.91;5032151;28;20385;-48
2023/05/02 08:44:13;;;;;;;9.10;1.70;;;;;;;11.37;70.06;100532.19;5032123;28;20078;-47
2023/05/02 08:46:42;;;;;;;7.95;1.58;;;;;;;11.39;70.07;100528.47;5032690;28;20500;-46
2023/05/02 08:49:10;;;;;;;6.70;1.48;;;;;;;11.20;70.88;100530.25;5032384;28;20029;-47
2023/05/02 08:51:37;;;;;;;6.45;1.30;;;;;;;11.33;70.16;100532.84;5032386;28;20064;-48
2023/05/02 08:54:08;;;;;;;5.70;1.45;;;;;;;11.35;69.79;100523.53;5032062;28;20105;-46
2023/05/02 08:56:35;;;;;;;10.80;1.80;;;;;;;11.33;70.27;100528.31;5032349;28;20045;-45
2023/05/02 08:59:01;;;;;;;12.65;2.08;;;;;;;11.21;71.04;100522.00;5032236;28;20461;-46
2023/05/02 09:01:30;;;;;;;8.50;2.00;;;;;;;11.26;71.22;100524.84;5032219;28;20037;-46
2023/05/02 09:03:58;;;;;;;7.53;1.63;;;;;;;11.21;70.86;100521.19;5031868;28;20457;-46
2023/05/02 09:06:26;;;;;;;7.60;1.75;;;;;;;11.22;70.90;100522.84;5030326;28;20503;-49
2023/05/02 09:08:52;;;;;;;6.32;1.77;;;;;;;11.19;71.20;100524.09;5012464;28;20030;-47
2023/05/02 09:11:20;;;;;;;6.30;2.17;;;;;;;11.22;71.02;100518.31;5012429;28;20057;-47
2023/05/02 09:13:49;;;;;;;9.30;1.50;;;;;;;11.26;70.87;100519.50;5011975;28;20036;-48
2023/05/02 09:16:18;;;;;;;6.18;1.63;;;;;;;11.19;71.08;100513.38;5022719;28;20206;-47
2023/05/02 09:18:49;;;;;;;7.90;2.13;;;;;;;11.07;71.90;100526.66;5031719;28;20481;-47
2023/05/02 09:21:17;;;;;;;5.40;1.35;;;;;;;11.20;71.39;100525.72;5013171;28;20038;-48
2023/05/02 09:23:47;;;;;;;9.35;1.90;;;;;;;11.20;71.47;100525.72;5031689;28;20462;-45
2023/05/02 09:26:33;;;;;;;8.15;1.95;;;;;;;11.17;71.11;100520.81;5029994;28;20467;-45
2023/05/02 09:29:04;;;;;;;8.85;1.70;;;;;;;11.18;71.01;100514.41;5029073;28;20386;-45
2023/05/02 09:31:35;;;;;;;6.18;1.73;;;;;;;11.14;71.59;100515.06;5030212;28;20608;-44
2023/05/02 09:34:11;;;;;;;9.38;1.85;;;;;;;11.19;70.87;100521.41;5030679;28;20041;-46
2023/05/02 09:36:46;;;;;;;5.18;1.33;;;;;;;11.18;71.36;100522.44;5029908;28;20021;-45
2023/05/02 09:39:15;;;;;;;7.70;2.00;;;;;;;11.09;72.03;100529.91;5019111;28;20546;-48
2023/05/02 09:41:46;;;;;;;7.43;1.40;;;;;;;11.08;72.57;100522.09;5011727;28;20029;-47
2023/05/02 09:44:17;;;;;;;8.05;1.50;;;;;;;10.97;72.72;100528.16;5011762;28;20022;-44
2023/05/02 09:46:54;;;;;;;4.43;1.55;;;;;;;11.12;72.31;100531.34;5012139;28;20066;-47
2023/05/02 09:49:41;;;;;;;7.95;2.13;;;;;;;11.13;71.89;100534.84;5011942;28;20132;-45
2023/05/02 09:52:16;;;;;;;8.32;1.40;;;;;;;11.13;72.14;100540.22;5031186;28;20033;-44
2023/05/02 09:54:42;;;;;;;4.50;1.77;;;;;;;11.17;71.97;100528.84;5031560;28;20025;-49
2023/05/02 09:57:09;;;;;;;10.55;2.08;;;;;;;11.15;72.03;100538.13;5031384;28;20318;-47
2023/05/02 09:59:36;;;;;;;7.07;2.17;;;;;;;11.25;71.66;100533.94;5031806;28;20025;-45
2023/05/02 10:02:05;;;;;;;7.07;1.75;;;;;;;11.25;71.86;100531.25;5031356;28;20029;-48
2023/05/02 10:04:32;;;;;;;4.05;1.52;;;;;;;11.27;72.16;100531.03;5031490;28;20175;-48
2023/05/02 10:07:00;;;;;;;7.38;1.55;;;;;;;11.21;74.30;100532.72;5031638;28;20108;-48
2023/05/02 10:09:28;;;;;;;4.90;1.65;;;;;;;11.12;75.60;100539.41;5031332;28;20026;-49
2023/05/02 10:11:55;;;;;;;7.18;2.10;;;;;;;10.99;77.26;100537.63;5031536;28;20027;-48
2023/05/02 10:14:24;;;;;;;6.35;1.85;;;;;;;11.10;77.42;100544.13;5031142;28;20032;-47
2023/05/02 10:16:59;;;;;;;7.05;1.55;;;;;;;11.00;78.41;100546.50;5031581;28;20033;-48
2023/05/02 10:19:44;;;;;;;13.73;2.00;;;;;;;10.92;80.06;100546.72;5031357;28;20382;-47
2023/05/02 10:22:12;;;;;;;6.45;2.05;;;;;;;10.82;80.61;100550.69;5031226;28;20032;-48
2023/05/02 10:24:40;;;;;;;14.68;2.35;;;;;;;10.90;81.25;100552.31;5031066;28;20029;-44
2023/05/02 10:27:07;;;;;;;9.25;2.63;;;;;;;11.02;80.81;100553.25;5031278;28;20029;-44
2023/05/02 10:29:35;;;;;;;8.80;2.10;;;;;;;10.97;80.30;100555.75;5031433;28;20068;-43
2023/05/02 10:32:03;;;;;;;12.00;1.70;;;;;;;10.92;80.30;100554.75;5031560;28;20140;-47
2023/05/02 10:34:32;;;;;;;7.50;1.95;;;;;;;10.96;79.80;100550.63;5034911;28;20040;-48
2023/05/02 10:37:01;;;;;;;8.82;2.00;;;;;;;10.97;80.37;100563.78;5034072;28;20108;-44
2023/05/02 10:39:31;;;;;;;10.88;2.20;;;;;;;11.04;78.96;100561.06;5033236;28;20036;-47
2023/05/02 10:42:01;;;;;;;4.95;1.70;;;;;;;10.93;79.08;100556.41;5043719;28;20052;-44
2023/05/02 10:44:35;;;;;;;8.48;1.75;;;;;;;10.95;79.39;100549.81;5032164;28;20031;-46
2023/05/02 10:47:17;;;;;;;12.75;1.90;;;;;;;10.79;81.20;100553.81;5024303;28;20112;-49
2023/05/02 10:49:59;;;;;;;6.60;1.85;;;;;;;10.88;80.48;100553.53;5034525;28;20714;-45
2023/05/02 10:52:37;;;;;;;6.25;1.90;;;;;;;10.83;80.57;100551.53;5014716;28;20025;-48
2023/05/02 10:55:20;;;;;;;7.07;2.28;;;;;;;10.91;79.46;100561.97;5014744;28;20470;-47
2023/05/02 10:58:07;;;;;;;8.15;1.95;;;;;;;10.96;78.39;100559.47;5015979;28;20080;-45
2023/05/02 11:00:34;;;;;;;9.65;1.83;;;;;;;10.89;79.31;100565.91;5017497;28;20026;-48
2023/05/02 11:03:01;;;;;;;6.50;1.77;;;;;;;10.83;79.69;100562.25;5029405;28;20032;-48
2023/05/02 11:05:27;;;;;;;7.05;1.63;;;;;;;10.80;79.25;100560.78;5049901;28;20131;-47
2023/05/02 11:08:15;;;;;;;5.25;1.88;;;;;;;10.78;80.56;100559.38;5014660;28;20040;-46
2023/05/02 11:10:42;;;;;;;4.85;1.60;;;;;;;10.87;80.13;100558.06;5014540;28;20386;-48
2023/05/02 11:13:08;;;;;;;6.70;1.67;;;;;;;10.82;80.40;100561.38;5014421;28;20117;-45
2023/05/02 11:15:40;;;;;;;8.65;1.92;;;;;;;10.91;79.59;100561.97;5022383;28;20021;-48
2023/05/02 11:18:08;;;;;;;7.55;1.90;;;;;;;10.88;80.21;100561.56;5031546;28;20044;-46
2023/05/02 11:20:42;;;;;;;7.35;1.50;;;;;;;10.92;79.73;100554.75;5025953;28;20052;-45
2023/05/02 11:23:14;;;;;;;9.75;1.80;;;;;;;10.93;79.42;100551.03;5031292;28;20108;-46
2023/05/02 11:25:45;;;;;;;6.60;1.75;;;;;;;10.91;79.14;100559.31;5031156;28;20059;-47
2023/05/02 11:28:36;;;;;;;3.95;1.40;;;;;;;10.93;78.56;100549.19;5034168;28;20462;-47
2023/05/02 11:31:07;;;;;;;11.60;1.77;;;;;;;10.95;77.71;100549.00;5034025;28;20414;-46
2023/05/02 11:33:33;;;;;;;7.57;1.85;;;;;;;10.90;78.39;100548.81;5033662;28;20030;-46